sensor_id;sensor_type;location;lat;lon;timestamp;pressure;altitude;pressure_sealevel;temperature;humidity
22653;BME280;11493;43.344;26.226;2024-02-04T00:00:20;99589.47;;;4.61;100.00
22653;BME280;11493;43.344;26.226;2024-02-04T00:02:47;99569.84;;;4.44;100.00
22653;BME280;11493;43.344;26.226;2024-02-04T00:05:15;99579.38;;;4.42;100.00
22653;BME280;11493;43.344;26.226;2024-02-04T00:07:42;99589.47;;;4.51;100.00
22653;BME280;11493;43.344;26.226;2024-02-04T00:10:09;99572.28;;;4.36;100.00
22653;BME280;11493;43.344;26.226;2024-02-04T00:12:37;99556.69;;;4.16;100.00
22653;BME280;11493;43.344;26.226;2024-02-04T00:15:04;99519.28;;;3.91;100.00
22653;BME280;11493;43.344;26.226;2024-02-04T00:17:31;99611.53;;;4.50;100.00
22653;BME280;11493;43.344;26.226;2024-02-04T00:20:01;99610.16;;;4.47;100.00
22653;BME280;11493;43.344;26.226;2024-02-04T00:22:29;99577.97;;;4.29;100.00
22653;BME280;11493;43.344;26.226;2024-02-04T00:24:56;99564.31;;;4.14;100.00
22653;BME280;11493;43.344;26.226;2024-02-04T00:27:28;99558.25;;;4.02;100.00
22653;BME280;11493;43.344;26.226;2024-02-04T00:29:57;99590.50;;;4.25;100.00
22653;BME280;11493;43.344;26.226;2024-02-04T00:32:25;99587.16;;;4.13;100.00
22653;BME280;11493;43.344;26.226;2024-02-04T00:34:53;99568.03;;;3.97;100.00
22653;BME280;11493;43.344;26.226;2024-02-04T00:37:20;99597.22;;;4.07;100.00
22653;BME280;11493;43.344;26.226;2024-02-04T00:39:47;99602.38;;;4.04;100.00
22653;BME280;11493;43.344;26.226;2024-02-04T00:42:14;99513.06;;;3.38;100.00
22653;BME280;11493;43.344;26.226;2024-02-04T00:44:42;99591.13;;;3.85;100.00
22653;BME280;11493;43.344;26.226;2024-02-04T00:47:09;99544.16;;;3.52;100.00
22653;BME280;11493;43.344;26.226;2024-02-04T00:49:36;99582.03;;;3.64;100.00
22653;BME280;11493;43.344;26.226;2024-02-04T00:52:03;99585.06;;;3.68;100.00
22653;BME280;11493;43.344;26.226;2024-02-04T00:54:31;99588.09;;;3.81;100.00
22653;BME280;11493;43.344;26.226;2024-02-04T00:56:58;99543.41;;;3.62;100.00
22653;BME280;11493;43.344;26.226;2024-02-04T00:59:28;99574.75;;;3.80;100.00
22653;BME280;11493;43.344;26.226;2024-02-04T01:01:55;99505.47;;;3.40;100.00
22653;BME280;11493;43.344;26.226;2024-02-04T01:04:22;99573.94;;;3.79;100.00
22653;BME280;11493;43.344;26.226;2024-02-04T01:06:50;99552.13;;;3.64;100.00
22653;BME280;11493;43.344;26.226;2024-02-04T01:09:28;99564.16;;;3.83;100.00
22653;BME280;11493;43.344;26.226;2024-02-04T01:11:56;99551.41;;;3.94;100.00
22653;BME280;11493;43.344;26.226;2024-02-04T01:14:24;99522.00;;;3.91;100.00
22653;BME280;11493;43.344;26.226;2024-02-04T01:16:51;99498.06;;;3.93;100.00
22653;BME280;11493;43.344;26.226;2024-02-04T01:19:18;99539.28;;;4.27;100.00
22653;BME280;11493;43.344;26.226;2024-02-04T01:21:45;99536.28;;;4.23;100.00
22653;BME280;11493;43.344;26.226;2024-02-04T01:24:13;99495.59;;;3.86;100.00
22653;BME280;11493;43.344;26.226;2024-02-04T01:26:40;99456.34;;;3.62;100.00
22653;BME280;11493;43.344;26.226;2024-02-04T01:29:07;99504.84;;;3.90;100.00
22653;BME280;11493;43.344;26.226;2024-02-04T01:31:34;99518.22;;;3.97;100.00
22653;BME280;11493;43.344;26.226;2024-02-04T01:34:02;99480.31;;;3.80;100.00
22653;BME280;11493;43.344;26.226;2024-02-04T01:36:29;99525.09;;;4.20;100.00
22653;BME280;11493;43.344;26.226;2024-02-04T01:38:57;99486.41;;;4.13;100.00
22653;BME280;11493;43.344;26.226;2024-02-04T01:41:24;99523.53;;;4.39;100.00
22653;BME280;11493;43.344;26.226;2024-02-04T01:43:54;99518.06;;;4.39;100.00
22653;BME280;11493;43.344;26.226;2024-02-04T01:46:22;99461.63;;;4.04;100.00
22653;BME280;11493;43.344;26.226;2024-02-04T01:48:49;99490.25;;;4.22;100.00
22653;BME280;11493;43.344;26.226;2024-02-04T01:51:18;99478.28;;;4.28;100.00
22653;BME280;11493;43.344;26.226;2024-02-04T01:53:47;99470.66;;;4.30;100.00
22653;BME280;11493;43.344;26.226;2024-02-04T01:56:15;99505.56;;;4.43;100.00
22653;BME280;11493;43.344;26.226;2024-02-04T01:58:45;99495.72;;;4.37;100.00
22653;BME280;11493;43.344;26.226;2024-02-04T02:01:13;99477.47;;;4.27;100.00
22653;BME280;11493;43.344;26.226;2024-02-04T02:03:41;99475.00;;;4.26;100.00
22653;BME280;11493;43.344;26.226;2024-02-04T02:06:08;99457.03;;;4.20;100.00
22653;BME280;11493;43.344;26.226;2024-02-04T02:08:35;99452.69;;;4.24;100.00
22653;BME280;11493;43.344;26.226;2024-02-04T02:11:11;99478.84;;;4.35;100.00
22653;BME280;11493;43.344;26.226;2024-02-04T02:13:40;99481.81;;;4.49;100.00
22653;BME280;11493;43.344;26.226;2024-02-04T02:16:15;99463.56;;;4.49;100.00
22653;BME280;11493;43.344;26.226;2024-02-04T02:18:48;99478.56;;;4.57;100.00
22653;BME280;11493;43.344;26.226;2024-02-04T02:24:16;99467.94;;;4.66;100.00
22653;BME280;11493;43.344;26.226;2024-02-04T02:26:46;99455.94;;;4.61;100.00
22653;BME280;11493;43.344;26.226;2024-02-04T02:29:13;99369.88;;;4.10;100.00
22653;BME280;11493;43.344;26.226;2024-02-04T02:31:41;99437.97;;;4.60;100.00
22653;BME280;11493;43.344;26.226;2024-02-04T02:34:15;99453.22;;;4.72;100.00
22653;BME280;11493;43.344;26.226;2024-02-04T02:37:26;99449.69;;;4.81;100.00
22653;BME280;11493;43.344;26.226;2024-02-04T02:40:03;99472.84;;;4.99;100.00
22653;BME280;11493;43.344;26.226;2024-02-04T02:42:32;99470.38;;;5.08;100.00
22653;BME280;11493;43.344;26.226;2024-02-04T02:45:01;99467.63;;;5.13;100.00
22653;BME280;11493;43.344;26.226;2024-02-04T02:47:29;99476.63;;;5.18;100.00
22653;BME280;11493;43.344;26.226;2024-02-04T02:49:56;99463.00;;;5.18;100.00
22653;BME280;11493;43.344;26.226;2024-02-04T02:52:23;99471.66;;;5.36;100.00
22653;BME280;11493;43.344;26.226;2024-02-04T02:54:51;99429.66;;;5.26;100.00
22653;BME280;11493;43.344;26.226;2024-02-04T02:57:18;99466.69;;;5.58;100.00
22653;BME280;11493;43.344;26.226;2024-02-04T02:59:45;99430.41;;;5.47;100.00
22653;BME280;11493;43.344;26.226;2024-02-04T03:02:12;99430.41;;;5.47;100.00
22653;BME280;11493;43.344;26.226;2024-02-04T03:04:40;99410.53;;;5.37;100.00
22653;BME280;11493;43.344;26.226;2024-02-04T03:07:08;99468.75;;;5.86;100.00
22653;BME280;11493;43.344;26.226;2024-02-04T03:09:35;99469.84;;;5.85;100.00
22653;BME280;11493;43.344;26.226;2024-02-04T03:12:02;99472.84;;;5.94;100.00
22653;BME280;11493;43.344;26.226;2024-02-04T03:14:30;99473.63;;;5.94;100.00
22653;BME280;11493;43.344;26.226;2024-02-04T03:16:58;99459.94;;;6.00;100.00
22653;BME280;11493;43.344;26.226;2024-02-04T03:19:25;99468.09;;;6.05;100.00
22653;BME280;11493;43.344;26.226;2024-02-04T03:21:52;99474.91;;;6.12;100.00
22653;BME280;11493;43.344;26.226;2024-02-04T03:24:19;99434.00;;;5.97;100.00
22653;BME280;11493;43.344;26.226;2024-02-04T03:26:47;99472.63;;;6.30;100.00
22653;BME280;11493;43.344;26.226;2024-02-04T03:29:14;99454.38;;;6.20;100.00
22653;BME280;11493;43.344;26.226;2024-02-04T03:31:41;99419.50;;;6.02;100.00
22653;BME280;11493;43.344;26.226;2024-02-04T03:34:10;99461.41;;;6.31;100.00
22653;BME280;11493;43.344;26.226;2024-02-04T03:36:37;99418.06;;;6.14;100.00
22653;BME280;11493;43.344;26.226;2024-02-04T03:39:08;99337.00;;;5.60;100.00
22653;BME280;11493;43.344;26.226;2024-02-04T03:41:35;99403.97;;;5.97;100.00
22653;BME280;11493;43.344;26.226;2024-02-04T03:44:02;99454.34;;;6.25;100.00
22653;BME280;11493;43.344;26.226;2024-02-04T03:46:29;99405.66;;;5.88;100.00
22653;BME280;11493;43.344;26.226;2024-02-04T03:48:57;99427.16;;;6.00;100.00
22653;BME280;11493;43.344;26.226;2024-02-04T03:51:24;99438.56;;;6.12;100.00
22653;BME280;11493;43.344;26.226;2024-02-04T03:53:51;99442.88;;;6.23;100.00
22653;BME280;11493;43.344;26.226;2024-02-04T03:56:19;99386.28;;;5.89;100.00
22653;BME280;11493;43.344;26.226;2024-02-04T03:58:46;99424.31;;;6.20;100.00
22653;BME280;11493;43.344;26.226;2024-02-04T04:01:13;99427.28;;;6.23;100.00
22653;BME280;11493;43.344;26.226;2024-02-04T04:03:44;99442.25;;;6.36;100.00
22653;BME280;11493;43.344;26.226;2024-02-04T04:06:11;99452.06;;;6.37;100.00
22653;BME280;11493;43.344;26.226;2024-02-04T04:08:38;99453.03;;;6.56;100.00
22653;BME280;11493;43.344;26.226;2024-02-04T04:11:09;99409.97;;;6.38;100.00
22653;BME280;11493;43.344;26.226;2024-02-04T04:13:37;99466.22;;;6.78;100.00
22653;BME280;11493;43.344;26.226;2024-02-04T04:16:05;99461.16;;;6.96;100.00
22653;BME280;11493;43.344;26.226;2024-02-04T04:18:33;99393.91;;;6.66;100.00
22653;BME280;11493;43.344;26.226;2024-02-04T04:21:01;99427.06;;;7.12;100.00
22653;BME280;11493;43.344;26.226;2024-02-04T04:23:28;99440.63;;;7.46;100.00
22653;BME280;11493;43.344;26.226;2024-02-04T04:25:55;99435.66;;;7.48;100.00
22653;BME280;11493;43.344;26.226;2024-02-04T04:28:22;99459.91;;;7.59;100.00
22653;BME280;11493;43.344;26.226;2024-02-04T04:30:49;99465.16;;;7.56;100.00
22653;BME280;11493;43.344;26.226;2024-02-04T04:33:17;99437.53;;;7.52;100.00
22653;BME280;11493;43.344;26.226;2024-02-04T04:35:45;99458.69;;;7.71;100.00
22653;BME280;11493;43.344;26.226;2024-02-04T04:38:12;99454.59;;;7.68;100.00
22653;BME280;11493;43.344;26.226;2024-02-04T04:40:39;99454.78;;;7.77;100.00
22653;BME280;11493;43.344;26.226;2024-02-04T04:43:09;99468.63;;;7.85;100.00
22653;BME280;11493;43.344;26.226;2024-02-04T04:45:36;99465.38;;;7.83;100.00
22653;BME280;11493;43.344;26.226;2024-02-04T04:48:03;99430.13;;;7.53;100.00
22653;BME280;11493;43.344;26.226;2024-02-04T04:50:31;99465.50;;;7.73;100.00
22653;BME280;11493;43.344;26.226;2024-02-04T04:52:58;99432.94;;;7.48;100.00
22653;BME280;11493;43.344;26.226;2024-02-04T04:55:26;99471.50;;;7.75;100.00
22653;BME280;11493;43.344;26.226;2024-02-04T04:57:53;99480.53;;;7.76;100.00
22653;BME280;11493;43.344;26.226;2024-02-04T05:00:20;99475.28;;;7.79;100.00
22653;BME280;11493;43.344;26.226;2024-02-04T05:02:47;99364.38;;;7.15;100.00
22653;BME280;11493;43.344;26.226;2024-02-04T05:05:15;99456.28;;;7.64;100.00
22653;BME280;11493;43.344;26.226;2024-02-04T05:07:42;99463.47;;;7.60;100.00
22653;BME280;11493;43.344;26.226;2024-02-04T05:10:09;99414.16;;;7.17;100.00
22653;BME280;11493;43.344;26.226;2024-02-04T05:12:36;99437.28;;;7.30;100.00
22653;BME280;11493;43.344;26.226;2024-02-04T05:15:05;99472.94;;;7.44;100.00
22653;BME280;11493;43.344;26.226;2024-02-04T05:17:32;99464.34;;;7.32;100.00
22653;BME280;11493;43.344;26.226;2024-02-04T05:20:00;99469.81;;;7.32;100.00
22653;BME280;11493;43.344;26.226;2024-02-04T05:22:29;99473.66;;;7.31;100.00
22653;BME280;11493;43.344;26.226;2024-02-04T05:24:56;99503.38;;;7.42;100.00
22653;BME280;11493;43.344;26.226;2024-02-04T05:27:23;99485.66;;;7.35;100.00
22653;BME280;11493;43.344;26.226;2024-02-04T05:29:50;99476.69;;;7.29;100.00
22653;BME280;11493;43.344;26.226;2024-02-04T05:32:18;99496.63;;;7.35;100.00
22653;BME280;11493;43.344;26.226;2024-02-04T05:34:45;99485.97;;;7.33;100.00
22653;BME280;11493;43.344;26.226;2024-02-04T05:37:12;99503.06;;;7.44;100.00
22653;BME280;11493;43.344;26.226;2024-02-04T05:39:39;99491.66;;;7.37;100.00
22653;BME280;11493;43.344;26.226;2024-02-04T05:42:07;99495.91;;;7.48;100.00
22653;BME280;11493;43.344;26.226;2024-02-04T05:44:35;99492.59;;;7.51;100.00
22653;BME280;11493;43.344;26.226;2024-02-04T05:47:02;99492.34;;;7.47;100.00
22653;BME280;11493;43.344;26.226;2024-02-04T05:49:29;99481.69;;;7.46;100.00
22653;BME280;11493;43.344;26.226;2024-02-04T05:51:57;99496.91;;;7.57;100.00
22653;BME280;11493;43.344;26.226;2024-02-04T05:54:24;99480.19;;;7.58;100.00
22653;BME280;11493;43.344;26.226;2024-02-04T05:56:51;99485.66;;;7.58;100.00
22653;BME280;11493;43.344;26.226;2024-02-04T05:59:18;99480.53;;;7.52;100.00
22653;BME280;11493;43.344;26.226;2024-02-04T06:01:46;99460.84;;;7.50;100.00
22653;BME280;11493;43.344;26.226;2024-02-04T06:04:13;99474.34;;;7.65;100.00
22653;BME280;11493;43.344;26.226;2024-02-04T06:06:40;99452.91;;;7.48;100.00
22653;BME280;11493;43.344;26.226;2024-02-04T06:09:07;99471.84;;;7.69;100.00
22653;BME280;11493;43.344;26.226;2024-02-04T06:11:38;99472.66;;;7.69;100.00
22653;BME280;11493;43.344;26.226;2024-02-04T06:14:05;99479.13;;;7.78;100.00
22653;BME280;11493;43.344;26.226;2024-02-04T06:16:33;99489.16;;;7.88;100.00
22653;BME280;11493;43.344;26.226;2024-02-04T06:19:01;99469.41;;;7.67;100.00
22653;BME280;11493;43.344;26.226;2024-02-04T06:21:29;99479.38;;;7.58;100.00
22653;BME280;11493;43.344;26.226;2024-02-04T06:23:57;99480.06;;;7.69;100.00
22653;BME280;11493;43.344;26.226;2024-02-04T06:26:24;99496.16;;;7.75;100.00
22653;BME280;11493;43.344;26.226;2024-02-04T06:28:51;99469.34;;;7.72;100.00
22653;BME280;11493;43.344;26.226;2024-02-04T06:31:19;99413.09;;;7.37;100.00
22653;BME280;11493;43.344;26.226;2024-02-04T06:33:46;99391.09;;;7.23;100.00
22653;BME280;11493;43.344;26.226;2024-02-04T06:36:13;99456.69;;;7.76;100.00
22653;BME280;11493;43.344;26.226;2024-02-04T06:38:45;99421.41;;;7.51;100.00
22653;BME280;11493;43.344;26.226;2024-02-04T06:41:13;99464.19;;;7.89;100.00
22653;BME280;11493;43.344;26.226;2024-02-04T06:43:40;99481.91;;;7.97;100.00
22653;BME280;11493;43.344;26.226;2024-02-04T06:46:07;99491.41;;;8.05;100.00
22653;BME280;11493;43.344;26.226;2024-02-04T06:48:35;99409.94;;;7.49;100.00
22653;BME280;11493;43.344;26.226;2024-02-04T06:51:02;99484.59;;;8.02;100.00
22653;BME280;11493;43.344;26.226;2024-02-04T06:53:29;99485.16;;;8.18;100.00
22653;BME280;11493;43.344;26.226;2024-02-04T06:55:59;99474.38;;;8.08;100.00
22653;BME280;11493;43.344;26.226;2024-02-04T06:58:29;99458.97;;;8.12;100.00
22653;BME280;11493;43.344;26.226;2024-02-04T07:00:57;99474.00;;;8.14;100.00
22653;BME280;11493;43.344;26.226;2024-02-04T07:03:27;99473.31;;;8.22;100.00
22653;BME280;11493;43.344;26.226;2024-02-04T07:05:57;99451.56;;;8.12;100.00
22653;BME280;11493;43.344;26.226;2024-02-04T07:08:25;99435.25;;;8.02;100.00
22653;BME280;11493;43.344;26.226;2024-02-04T07:10:52;99460.22;;;8.01;100.00
22653;BME280;11493;43.344;26.226;2024-02-04T07:13:22;99467.19;;;8.12;100.00
22653;BME280;11493;43.344;26.226;2024-02-04T07:15:50;99472.59;;;8.17;100.00
22653;BME280;11493;43.344;26.226;2024-02-04T07:18:20;99472.09;;;8.15;100.00
22653;BME280;11493;43.344;26.226;2024-02-04T07:20:49;99508.53;;;8.15;100.00
22653;BME280;11493;43.344;26.226;2024-02-04T07:23:16;99488.41;;;7.82;100.00
22653;BME280;11493;43.344;26.226;2024-02-04T07:25:43;99508.03;;;7.89;100.00
22653;BME280;11493;43.344;26.226;2024-02-04T07:28:10;99413.97;;;7.33;100.00
22653;BME280;11493;43.344;26.226;2024-02-04T07:30:37;99517.03;;;8.14;100.00
22653;BME280;11493;43.344;26.226;2024-02-04T07:33:04;99517.63;;;8.11;100.00
22653;BME280;11493;43.344;26.226;2024-02-04T07:35:32;99522.66;;;8.22;100.00
22653;BME280;11493;43.344;26.226;2024-02-04T07:37:59;99512.50;;;8.23;100.00
22653;BME280;11493;43.344;26.226;2024-02-04T07:40:26;99499.97;;;8.41;100.00
22653;BME280;11493;43.344;26.226;2024-02-04T07:42:55;99454.59;;;8.11;100.00
22653;BME280;11493;43.344;26.226;2024-02-04T07:45:22;99472.38;;;8.32;100.00
22653;BME280;11493;43.344;26.226;2024-02-04T07:47:49;99472.09;;;8.15;100.00
22653;BME280;11493;43.344;26.226;2024-02-04T07:50:17;99492.31;;;8.38;100.00
22653;BME280;11493;43.344;26.226;2024-02-04T07:52:44;99496.47;;;8.54;100.00
22653;BME280;11493;43.344;26.226;2024-02-04T07:55:11;99478.84;;;8.41;100.00
22653;BME280;11493;43.344;26.226;2024-02-04T07:57:41;99473.91;;;8.19;100.00
22653;BME280;11493;43.344;26.226;2024-02-04T08:00:09;99485.28;;;8.50;100.00
22653;BME280;11493;43.344;26.226;2024-02-04T08:02:40;99506.31;;;8.74;100.00
22653;BME280;11493;43.344;26.226;2024-02-04T08:05:08;99505.00;;;8.52;100.00
22653;BME280;11493;43.344;26.226;2024-02-04T08:07:35;99484.78;;;8.48;100.00
22653;BME280;11493;43.344;26.226;2024-02-04T08:10:03;99502.19;;;8.57;100.00
22653;BME280;11493;43.344;26.226;2024-02-04T08:12:33;99483.81;;;8.39;100.00
22653;BME280;11493;43.344;26.226;2024-02-04T08:15:01;99460.09;;;8.48;100.00
22653;BME280;11493;43.344;26.226;2024-02-04T08:17:28;99479.50;;;8.71;100.00
22653;BME280;11493;43.344;26.226;2024-02-04T08:19:58;99484.69;;;8.72;100.00
22653;BME280;11493;43.344;26.226;2024-02-04T08:22:25;99495.94;;;8.71;100.00
22653;BME280;11493;43.344;26.226;2024-02-04T08:24:55;99486.78;;;8.94;100.00
22653;BME280;11493;43.344;26.226;2024-02-04T08:27:22;99472.06;;;8.90;100.00
22653;BME280;11493;43.344;26.226;2024-02-04T08:29:50;99483.63;;;9.01;100.00
22653;BME280;11493;43.344;26.226;2024-02-04T08:32:16;99459.44;;;8.89;100.00
22653;BME280;11493;43.344;26.226;2024-02-04T08:34:43;99461.38;;;9.02;100.00
22653;BME280;11493;43.344;26.226;2024-02-04T08:37:11;99463.66;;;9.14;100.00
22653;BME280;11493;43.344;26.226;2024-02-04T08:39:39;99487.16;;;9.20;100.00
22653;BME280;11493;43.344;26.226;2024-02-04T08:42:06;99461.00;;;9.09;100.00
22653;BME280;11493;43.344;26.226;2024-02-04T08:44:34;99479.72;;;9.20;100.00
22653;BME280;11493;43.344;26.226;2024-02-04T08:47:08;99405.16;;;8.86;100.00
22653;BME280;11493;43.344;26.226;2024-02-04T08:49:37;99464.16;;;9.16;100.00
22653;BME280;11493;43.344;26.226;2024-02-04T08:52:07;99486.06;;;9.35;100.00
22653;BME280;11493;43.344;26.226;2024-02-04T08:54:35;99480.78;;;9.38;100.00
22653;BME280;11493;43.344;26.226;2024-02-04T08:57:03;99486.47;;;9.69;100.00
22653;BME280;11493;43.344;26.226;2024-02-04T08:59:30;99482.31;;;9.58;100.00
22653;BME280;11493;43.344;26.226;2024-02-04T09:01:57;99503.38;;;9.76;100.00
22653;BME280;11493;43.344;26.226;2024-02-04T09:04:24;99429.41;;;9.39;100.00
22653;BME280;11493;43.344;26.226;2024-02-04T09:06:52;99470.09;;;9.92;100.00
22653;BME280;11493;43.344;26.226;2024-02-04T09:09:19;99494.72;;;10.10;100.00
22653;BME280;11493;43.344;26.226;2024-02-04T09:11:46;99514.16;;;10.28;100.00
22653;BME280;11493;43.344;26.226;2024-02-04T09:14:13;99518.88;;;10.49;100.00
22653;BME280;11493;43.344;26.226;2024-02-04T09:16:41;99517.41;;;10.66;100.00
22653;BME280;11493;43.344;26.226;2024-02-04T09:19:08;99513.53;;;10.67;100.00
22653;BME280;11493;43.344;26.226;2024-02-04T09:21:36;99503.78;;;10.61;100.00
22653;BME280;11493;43.344;26.226;2024-02-04T09:24:03;99487.00;;;10.48;100.00
22653;BME280;11493;43.344;26.226;2024-02-04T09:26:31;99482.13;;;10.45;100.00
22653;BME280;11493;43.344;26.226;2024-02-04T09:28:58;99488.19;;;10.56;100.00
22653;BME280;11493;43.344;26.226;2024-02-04T09:31:25;99491.13;;;10.60;100.00
22653;BME280;11493;43.344;26.226;2024-02-04T09:33:53;99433.38;;;10.37;99.29
22653;BME280;11493;43.344;26.226;2024-02-04T09:36:20;99448.97;;;10.50;98.91
22653;BME280;11493;43.344;26.226;2024-02-04T09:38:49;99454.41;;;10.42;99.76
22653;BME280;11493;43.344;26.226;2024-02-04T09:41:17;99479.75;;;10.52;100.00
22653;BME280;11493;43.344;26.226;2024-02-04T09:43:44;99490.25;;;10.50;99.93
22653;BME280;11493;43.344;26.226;2024-02-04T09:46:12;99489.41;;;10.64;98.79
22653;BME280;11493;43.344;26.226;2024-02-04T09:48:40;99469.75;;;10.34;98.27
22653;BME280;11493;43.344;26.226;2024-02-04T09:51:11;99478.31;;;10.33;98.69
22653;BME280;11493;43.344;26.226;2024-02-04T09:53:43;99501.75;;;10.52;99.81
22653;BME280;11493;43.344;26.226;2024-02-04T09:56:12;99495.78;;;10.73;99.34
22653;BME280;11493;43.344;26.226;2024-02-04T09:58:41;99484.03;;;10.81;99.88
22653;BME280;11493;43.344;26.226;2024-02-04T10:01:10;99472.88;;;10.64;99.55
22653;BME280;11493;43.344;26.226;2024-02-04T10:03:38;99465.13;;;10.88;99.54
22653;BME280;11493;43.344;26.226;2024-02-04T10:06:05;99465.50;;;10.95;99.12
22653;BME280;11493;43.344;26.226;2024-02-04T10:08:35;99474.03;;;11.16;99.50
22653;BME280;11493;43.344;26.226;2024-02-04T10:11:03;99420.72;;;10.81;98.08
22653;BME280;11493;43.344;26.226;2024-02-04T10:13:44;99455.41;;;11.13;98.58
22653;BME280;11493;43.344;26.226;2024-02-04T10:16:15;99448.44;;;11.07;97.58
22653;BME280;11493;43.344;26.226;2024-02-04T10:18:47;99450.47;;;11.32;97.52
22653;BME280;11493;43.344;26.226;2024-02-04T10:21:17;99469.94;;;11.36;97.95
22653;BME280;11493;43.344;26.226;2024-02-04T10:23:48;99464.78;;;11.43;98.18
22653;BME280;11493;43.344;26.226;2024-02-04T10:26:17;99436.47;;;11.20;97.68
22653;BME280;11493;43.344;26.226;2024-02-04T10:28:45;99459.50;;;11.24;95.44
22653;BME280;11493;43.344;26.226;2024-02-04T10:31:13;99446.78;;;11.06;96.44
22653;BME280;11493;43.344;26.226;2024-02-04T10:33:41;99462.38;;;11.10;97.19
22653;BME280;11493;43.344;26.226;2024-02-04T10:36:08;99461.75;;;11.13;97.58
22653;BME280;11493;43.344;26.226;2024-02-04T10:38:35;99467.78;;;10.93;96.31
22653;BME280;11493;43.344;26.226;2024-02-04T10:41:03;99443.94;;;10.89;93.95
22653;BME280;11493;43.344;26.226;2024-02-04T10:43:33;99458.06;;;10.96;93.93
22653;BME280;11493;43.344;26.226;2024-02-04T10:46:09;99447.56;;;10.98;93.88
22653;BME280;11493;43.344;26.226;2024-02-04T10:48:37;99472.09;;;11.16;91.50
22653;BME280;11493;43.344;26.226;2024-02-04T10:51:13;99473.03;;;11.03;92.66
22653;BME280;11493;43.344;26.226;2024-02-04T10:53:42;99458.38;;;10.94;92.99
22653;BME280;11493;43.344;26.226;2024-02-04T10:56:21;99474.00;;;11.07;92.76
22653;BME280;11493;43.344;26.226;2024-02-04T10:58:51;99428.28;;;10.98;92.94
22653;BME280;11493;43.344;26.226;2024-02-04T11:01:19;99439.06;;;11.16;93.18
22653;BME280;11493;43.344;26.226;2024-02-04T11:03:48;99475.78;;;11.34;90.91
22653;BME280;11493;43.344;26.226;2024-02-04T11:06:16;99479.66;;;11.33;91.51
22653;BME280;11493;43.344;26.226;2024-02-04T11:08:43;99467.31;;;11.31;91.55
22653;BME280;11493;43.344;26.226;2024-02-04T11:11:11;99443.38;;;11.40;91.08
22653;BME280;11493;43.344;26.226;2024-02-04T11:13:44;99471.59;;;11.76;89.38
22653;BME280;11493;43.344;26.226;2024-02-04T11:16:24;99460.47;;;11.99;88.84
22653;BME280;11493;43.344;26.226;2024-02-04T11:24:29;99468.25;;;11.88;88.04
22653;BME280;11493;43.344;26.226;2024-02-04T11:27:02;99449.31;;;11.64;88.23
22653;BME280;11493;43.344;26.226;2024-02-04T11:29:29;99450.66;;;11.75;88.67
22653;BME280;11493;43.344;26.226;2024-02-04T11:31:56;99421.69;;;11.47;89.76
22653;BME280;11493;43.344;26.226;2024-02-04T11:34:27;99453.56;;;11.70;88.96
22653;BME280;11493;43.344;26.226;2024-02-04T11:36:55;99440.41;;;11.67;87.73
22653;BME280;11493;43.344;26.226;2024-02-04T11:39:22;99430.53;;;11.66;88.41
22653;BME280;11493;43.344;26.226;2024-02-04T11:41:53;99392.28;;;11.25;88.85
22653;BME280;11493;43.344;26.226;2024-02-04T11:44:26;99434.00;;;11.41;88.41
22653;BME280;11493;43.344;26.226;2024-02-04T11:46:54;99427.13;;;11.30;88.83
22653;BME280;11493;43.344;26.226;2024-02-04T11:49:25;99434.81;;;11.41;89.00
22653;BME280;11493;43.344;26.226;2024-02-04T11:51:54;99439.31;;;11.37;88.17
22653;BME280;11493;43.344;26.226;2024-02-04T11:54:21;99437.03;;;11.31;89.71
22653;BME280;11493;43.344;26.226;2024-02-04T11:56:50;99439.16;;;11.34;89.59
22653;BME280;11493;43.344;26.226;2024-02-04T11:59:23;99429.88;;;11.30;89.37
22653;BME280;11493;43.344;26.226;2024-02-04T12:01:55;99432.38;;;11.40;90.77
22653;BME280;11493;43.344;26.226;2024-02-04T12:04:23;99448.50;;;11.64;89.83
22653;BME280;11493;43.344;26.226;2024-02-04T12:06:50;99431.44;;;11.53;90.79
22653;BME280;11493;43.344;26.226;2024-02-04T12:09:18;99361.94;;;11.16;89.69
22653;BME280;11493;43.344;26.226;2024-02-04T12:11:45;99432.59;;;11.52;90.80
22653;BME280;11493;43.344;26.226;2024-02-04T12:14:13;99440.16;;;11.77;90.46
22653;BME280;11493;43.344;26.226;2024-02-04T12:16:41;99438.00;;;11.74;90.53
22653;BME280;11493;43.344;26.226;2024-02-04T12:19:09;99407.41;;;11.36;88.44
22653;BME280;11493;43.344;26.226;2024-02-04T12:21:37;99353.69;;;11.16;89.60
22653;BME280;11493;43.344;26.226;2024-02-04T12:24:05;99411.53;;;11.56;89.53
22653;BME280;11493;43.344;26.226;2024-02-04T12:26:32;99419.16;;;11.59;88.41
22653;BME280;11493;43.344;26.226;2024-02-04T12:29:00;99428.69;;;11.53;88.71
22653;BME280;11493;43.344;26.226;2024-02-04T12:31:27;99414.84;;;11.36;88.41
22653;BME280;11493;43.344;26.226;2024-02-04T12:33:59;99423.97;;;11.45;89.09
22653;BME280;11493;43.344;26.226;2024-02-04T12:36:32;99416.81;;;11.44;88.91
22653;BME280;11493;43.344;26.226;2024-02-04T12:39:01;99417.03;;;11.56;89.27
22653;BME280;11493;43.344;26.226;2024-02-04T12:41:28;99412.84;;;11.59;88.28
22653;BME280;11493;43.344;26.226;2024-02-04T12:43:59;99393.84;;;11.48;88.85
22653;BME280;11493;43.344;26.226;2024-02-04T12:46:32;99402.97;;;11.66;89.75
22653;BME280;11493;43.344;26.226;2024-02-04T12:48:59;99397.31;;;11.71;90.45
22653;BME280;11493;43.344;26.226;2024-02-04T12:51:33;99394.28;;;11.81;90.78
22653;BME280;11493;43.344;26.226;2024-02-04T12:54:07;99391.19;;;12.00;91.43
22653;BME280;11493;43.344;26.226;2024-02-04T12:59:23;99381.00;;;12.01;90.03
22653;BME280;11493;43.344;26.226;2024-02-04T13:02:02;99360.53;;;12.02;89.08
22653;BME280;11493;43.344;26.226;2024-02-04T13:04:39;99374.19;;;12.07;89.62
22653;BME280;11493;43.344;26.226;2024-02-04T13:07:09;99365.72;;;11.95;89.24